createdAt,value
2022-11-05T04:37:57.173Z,87.62
2022-11-05T04:40:25.284Z,90.68
2022-11-05T04:42:54.170Z,90.41
2022-11-05T04:45:23.437Z,87.36
2022-11-05T04:47:51.194Z,87.89
2022-11-05T04:50:18.518Z,87.36
2022-11-05T04:52:45.819Z,87.11
2022-11-05T04:55:13.588Z,87.21
2022-11-05T04:57:40.914Z,88.89
2022-11-05T05:00:10.306Z,86.69
2022-11-05T05:02:37.854Z,89.07
2022-11-05T05:05:05.619Z,88.52
2022-11-05T05:07:33.984Z,89.28
2022-11-05T05:10:02.339Z,88.64
2022-11-05T05:12:29.733Z,90.54
2022-11-05T05:14:57.271Z,88.11
2022-11-05T05:17:25.275Z,88.82
2022-11-05T05:20:11.277Z,86.63
2022-11-05T05:22:38.836Z,87.20
2022-11-05T05:25:06.256Z,89.00
2022-11-05T05:27:33.554Z,89.04
2022-11-05T05:30:01.191Z,89.26
2022-11-05T05:32:28.574Z,90.67
2022-11-05T05:34:55.941Z,88.87
2022-11-05T05:37:23.667Z,89.05
2022-11-05T05:39:51.078Z,88.71
2022-11-05T05:42:18.400Z,86.86
2022-11-05T05:44:45.973Z,90.10
2022-11-05T05:47:14.067Z,87.72
2022-11-05T05:49:41.390Z,85.72
2022-11-05T05:52:09.173Z,87.98
2022-11-05T05:54:42.304Z,87.50
2022-11-05T05:57:10.547Z,86.78
2022-11-05T05:59:37.835Z,86.07
2022-11-05T06:02:05.234Z,88.76
2022-11-05T06:04:33.114Z,89.87
2022-11-05T06:07:00.418Z,89.20
2022-11-05T06:09:27.915Z,88.50
2022-11-05T06:11:55.502Z,88.69
2022-11-05T06:14:22.805Z,87.39
2022-11-05T06:16:50.110Z,89.24
2022-11-05T06:19:17.664Z,89.96
2022-11-05T06:21:45.093Z,89.89
2022-11-05T06:24:12.444Z,88.90
2022-11-05T06:26:42.901Z,87.28
2022-11-05T06:29:10.652Z,87.37
2022-11-05T06:31:38.109Z,90.23
2022-11-05T06:34:05.689Z,89.57
2022-11-05T06:36:33.516Z,90.55
2022-11-05T06:39:00.860Z,91.00
2022-11-05T06:41:28.423Z,91.03
2022-11-05T06:43:55.721Z,89.45
2022-11-05T06:46:23.023Z,90.85
2022-11-05T06:48:51.107Z,91.58
2022-11-05T06:51:18.667Z,91.66
2022-11-05T06:53:46.021Z,88.73
2022-11-05T06:56:13.596Z,87.59
2022-11-05T06:58:41.006Z,88.06
2022-11-05T07:01:09.859Z,87.43
2022-11-05T07:03:38.227Z,88.99
2022-11-05T07:06:06.710Z,87.96
2022-11-05T07:08:35.634Z,87.78
2022-11-05T07:11:04.007Z,89.76
2022-11-05T07:13:31.355Z,85.88
2022-11-05T07:15:58.671Z,86.01
2022-11-05T07:18:26.262Z,84.05
2022-11-05T07:20:53.618Z,85.95
2022-11-05T07:23:20.953Z,85.91
2022-11-05T07:25:48.502Z,84.63
2022-11-05T07:28:15.830Z,83.40
2022-11-05T07:30:43.250Z,83.99
2022-11-05T07:33:11.121Z,83.42
2022-11-05T07:35:38.602Z,84.87
2022-11-05T07:38:05.949Z,83.75
2022-11-05T07:40:33.522Z,84.49
2022-11-05T07:43:01.509Z,84.05
2022-11-05T07:45:30.770Z,84.55
2022-11-05T07:48:02.968Z,83.62
2022-11-05T07:50:33.640Z,84.65
2022-11-05T07:53:12.368Z,85.45
2022-11-05T07:55:43.878Z,84.40
2022-11-05T07:58:11.523Z,83.76
2022-11-05T08:00:39.159Z,81.98
2022-11-05T08:03:17.466Z,84.51
2022-11-05T08:05:47.364Z,83.34
2022-11-05T08:08:17.082Z,83.35
2022-11-05T08:10:44.595Z,81.03
2022-11-05T08:13:13.314Z,82.03
2022-11-05T08:15:42.254Z,81.67
2022-11-05T08:18:17.215Z,79.16
2022-11-05T08:20:45.187Z,79.96
2022-11-05T08:23:12.883Z,78.85
2022-11-05T08:25:41.046Z,81.65
2022-11-05T08:28:11.770Z,81.07
2022-11-05T08:30:39.149Z,78.24
2022-11-05T08:33:12.547Z,78.41
2022-11-05T08:35:40.998Z,77.30
2022-11-05T08:38:11.073Z,77.74
2022-11-05T08:40:38.390Z,77.04
2022-11-05T08:43:07.525Z,77.53
2022-11-05T08:45:38.272Z,79.99
2022-11-05T08:48:08.684Z,79.09
2022-11-05T08:50:37.356Z,79.63
2022-11-05T08:53:05.726Z,80.22
2022-11-05T08:55:33.317Z,82.59
2022-11-05T08:58:02.843Z,80.40
2022-11-05T09:00:32.551Z,79.04
2022-11-05T09:03:01.689Z,79.92
2022-11-05T09:05:29.702Z,80.96
2022-11-05T09:08:00.764Z,78.19
2022-11-05T09:10:29.203Z,80.26
2022-11-05T09:12:56.546Z,79.95
2022-11-05T09:15:24.678Z,78.40
2022-11-05T09:17:52.479Z,80.08
2022-11-05T09:20:19.799Z,79.45
2022-11-05T09:22:47.167Z,79.51
2022-11-05T09:25:15.956Z,81.59
2022-11-05T09:27:43.798Z,78.09
2022-11-05T09:30:12.494Z,79.70
2022-11-05T09:32:40.127Z,78.94
2022-11-05T09:35:08.263Z,79.66
2022-11-05T09:37:38.855Z,77.75
2022-11-05T09:40:06.992Z,77.22
2022-11-05T09:42:42.522Z,76.64
2022-11-05T09:45:15.118Z,77.19
2022-11-05T09:48:01.754Z,75.68
2022-11-05T09:50:33.014Z,76.57
2022-11-05T09:53:01.031Z,76.38
2022-11-05T09:55:33.948Z,77.36
2022-11-05T09:58:04.013Z,77.10
2022-11-05T10:00:32.564Z,77.06
2022-11-05T10:03:05.865Z,77.15
2022-11-05T10:05:34.341Z,74.40
2022-11-05T10:08:05.645Z,73.92
2022-11-05T10:10:45.502Z,71.64
2022-11-05T10:13:19.101Z,72.84
2022-11-05T10:16:15.268Z,71.06
2022-11-05T10:18:44.846Z,71.23
2022-11-05T10:21:17.441Z,71.37
2022-11-05T10:23:45.934Z,71.49
2022-11-05T10:26:26.736Z,71.91
2022-11-05T10:29:14.008Z,70.77
2022-11-05T10:31:43.271Z,70.75
2022-11-05T10:34:13.520Z,71.06
2022-11-05T10:36:40.916Z,71.30
2022-11-05T10:39:19.274Z,73.16
2022-11-05T10:42:31.589Z,71.02
2022-11-05T10:45:11.269Z,71.46
2022-11-05T10:47:45.154Z,74.66
2022-11-05T10:50:17.552Z,73.52
2022-11-05T10:53:15.558Z,73.09
2022-11-05T10:55:48.703Z,71.86
2022-11-05T10:58:20.291Z,71.51
2022-11-05T11:00:53.847Z,73.31
2022-11-05T11:03:33.086Z,72.49
2022-11-05T11:06:03.075Z,69.60
2022-11-05T11:08:30.983Z,71.19
2022-11-05T11:11:00.059Z,70.59
2022-11-05T11:13:49.278Z,71.90
2022-11-05T11:16:21.084Z,71.82
2022-11-05T11:18:57.063Z,70.57
2022-11-05T11:21:24.763Z,70.50
2022-11-05T11:24:04.800Z,70.27
2022-11-05T11:26:34.496Z,69.84
2022-11-05T11:29:06.497Z,71.79
2022-11-05T11:31:37.765Z,70.18
2022-11-05T11:34:26.925Z,71.34
2022-11-05T11:36:56.336Z,71.71
2022-11-05T11:39:30.460Z,69.95
2022-11-05T11:42:02.354Z,69.54
2022-11-05T11:44:33.119Z,71.52
2022-11-05T11:47:10.968Z,70.82
2022-11-05T11:49:41.437Z,72.64
2022-11-05T11:52:14.267Z,73.61
2022-11-05T11:54:42.341Z,72.59
2022-11-05T11:57:20.566Z,71.65
2022-11-05T12:00:07.899Z,72.92
2022-11-05T12:02:58.824Z,72.55
2022-11-05T12:05:38.541Z,71.13
2022-11-05T12:08:18.642Z,72.07
2022-11-05T12:11:16.409Z,73.55
2022-11-05T12:14:04.873Z,72.31
2022-11-05T12:16:51.823Z,71.48
2022-11-05T12:19:32.004Z,71.13
2022-11-05T12:22:38.246Z,69.54
2022-11-05T12:25:11.165Z,71.48
2022-11-05T12:28:01.906Z,70.75
2022-11-05T12:30:37.324Z,69.43
2022-11-05T12:33:26.288Z,69.45
2022-11-05T12:36:14.582Z,69.24
2022-11-05T12:39:19.674Z,69.90
2022-11-05T12:42:02.081Z,70.85
2022-11-05T12:44:58.166Z,68.67
2022-11-05T12:47:37.780Z,69.29
2022-11-05T12:50:22.813Z,72.92
2022-11-05T12:53:08.463Z,71.31
2022-11-05T12:55:47.142Z,69.38
2022-11-05T12:58:22.931Z,69.14
2022-11-05T13:01:05.305Z,69.97
2022-11-05T13:03:58.790Z,69.73
2022-11-05T13:06:32.877Z,68.92
2022-11-05T13:09:20.017Z,70.89
2022-11-05T13:11:52.847Z,69.50
2022-11-05T13:14:24.840Z,69.56
2022-11-05T13:17:00.876Z,69.66
2022-11-05T13:19:36.000Z,69.08
2022-11-05T13:22:27.498Z,68.76
2022-11-05T13:25:01.124Z,70.85
2022-11-05T13:27:28.671Z,69.06
2022-11-05T13:30:01.989Z,70.53
2022-11-05T13:32:33.254Z,71.43
2022-11-05T13:35:02.547Z,69.78
2022-11-05T13:37:52.720Z,71.29
2022-11-05T13:40:24.861Z,69.09
2022-11-05T13:43:15.118Z,70.73
2022-11-05T13:46:07.518Z,71.58
2022-11-05T13:49:00.244Z,70.46
2022-11-05T13:51:33.578Z,70.21
2022-11-05T13:54:45.579Z,69.85
2022-11-05T13:57:31.325Z,72.81
2022-11-05T14:00:25.462Z,71.47
2022-11-05T14:02:55.542Z,70.72
2022-11-05T14:05:25.656Z,70.94
2022-11-05T14:07:53.738Z,71.78
2022-11-05T14:10:36.380Z,73.75
2022-11-05T14:13:16.198Z,72.71
2022-11-05T14:15:58.647Z,73.67
2022-11-05T14:18:43.052Z,73.50
2022-11-05T14:21:32.339Z,74.30
2022-11-05T14:24:19.564Z,73.75
2022-11-05T14:27:02.437Z,72.24
2022-11-05T14:29:41.891Z,74.46
2022-11-05T14:32:21.165Z,71.94
2022-11-05T14:34:54.203Z,73.75
2022-11-05T14:37:21.529Z,72.81
2022-11-05T14:39:49.710Z,71.45
2022-11-05T14:42:28.797Z,70.01
2022-11-05T14:45:34.177Z,71.80
2022-11-05T14:48:04.592Z,71.10
2022-11-05T14:50:36.152Z,71.41
2022-11-05T14:53:28.724Z,71.04
2022-11-05T14:56:02.422Z,71.13
2022-11-05T14:58:32.370Z,71.01
2022-11-05T15:01:02.677Z,71.61
2022-11-05T15:03:31.921Z,69.72
2022-11-05T15:06:35.551Z,70.39
2022-11-05T15:09:27.626Z,72.89
2022-11-05T15:11:55.252Z,71.20
2022-11-05T15:14:51.205Z,72.90
2022-11-05T15:17:30.462Z,71.54
2022-11-05T15:20:09.660Z,72.14
2022-11-05T15:22:41.836Z,72.22
2022-11-05T15:25:47.771Z,71.19
2022-11-05T15:28:24.585Z,72.39
2022-11-05T15:31:13.939Z,73.14
2022-11-05T15:33:43.834Z,72.37
2022-11-05T15:36:25.789Z,73.11
2022-11-05T15:39:23.006Z,73.95
2022-11-05T15:41:41.932Z,72.53
2022-11-05T15:44:24.226Z,73.75
2022-11-05T15:47:13.755Z,73.22
2022-11-05T15:50:02.311Z,74.37
2022-11-05T15:52:42.111Z,72.21
2022-11-05T15:55:13.200Z,72.70
2022-11-05T15:57:50.879Z,73.58
2022-11-05T16:00:21.979Z,71.64
2022-11-05T16:02:56.023Z,71.17
2022-11-05T16:05:28.680Z,74.71
2022-11-05T16:07:59.530Z,75.83
2022-11-05T16:10:34.141Z,72.62
2022-11-05T16:13:40.030Z,75.62
2022-11-05T16:16:32.711Z,75.08
2022-11-05T16:19:00.941Z,74.81
2022-11-05T16:21:28.641Z,75.81
2022-11-05T16:23:58.631Z,76.95
2022-11-05T16:29:36.148Z,77.01
2022-11-05T16:32:06.685Z,78.72
2022-11-05T16:34:40.782Z,78.09
2022-11-05T16:37:16.112Z,77.78
2022-11-05T16:39:43.679Z,77.01
2022-11-05T16:42:23.591Z,75.08
2022-11-05T16:44:52.396Z,77.39
2022-11-05T16:47:21.015Z,80.58
2022-11-05T16:49:48.807Z,82.04
2022-11-05T16:52:16.958Z,80.25
2022-11-05T16:54:44.792Z,78.37
2022-11-05T16:57:26.472Z,78.12
2022-11-05T16:59:55.430Z,77.03
2022-11-05T17:02:23.361Z,79.06
2022-11-05T17:04:56.216Z,80.70
2022-11-05T17:07:24.345Z,77.15
2022-11-05T17:09:52.287Z,76.10
2022-11-05T17:12:19.983Z,75.60
2022-11-05T17:14:48.106Z,73.03
2022-11-05T17:17:15.910Z,75.91
2022-11-05T17:19:44.029Z,75.41
2022-11-05T17:22:12.202Z,80.73
2022-11-05T17:24:40.121Z,79.54
2022-11-05T17:27:08.018Z,80.93
2022-11-05T17:29:36.101Z,79.94
2022-11-05T17:32:06.066Z,80.72
2022-11-05T17:34:36.900Z,78.53
2022-11-05T17:37:04.987Z,79.64
2022-11-05T17:39:37.971Z,79.68
2022-11-05T17:42:06.196Z,80.73
2022-11-05T17:44:33.730Z,78.94
2022-11-05T17:47:01.364Z,78.98
2022-11-05T17:49:29.518Z,79.79
2022-11-05T17:51:58.557Z,80.47
2022-11-05T17:54:26.379Z,80.64
2022-11-05T17:56:54.428Z,79.80
2022-11-05T17:59:22.297Z,83.57
2022-11-05T18:01:50.462Z,86.17
2022-11-05T18:04:18.726Z,83.67
2022-11-05T18:06:46.477Z,83.34
2022-11-05T18:09:14.539Z,83.84
2022-11-05T18:11:43.170Z,84.20
2022-11-05T18:14:10.974Z,83.00
2022-11-05T18:16:38.534Z,81.70
2022-11-05T18:19:06.661Z,82.36
2022-11-05T18:21:34.582Z,82.15
2022-11-05T18:24:04.188Z,80.49
2022-11-05T18:26:32.432Z,81.14
2022-11-05T18:29:01.675Z,80.03
2022-11-05T18:31:29.406Z,78.49
2022-11-05T18:33:58.841Z,78.62
2022-11-05T18:36:29.973Z,81.17
2022-11-05T18:38:59.319Z,81.41
2022-11-05T18:41:27.733Z,79.71
2022-11-05T18:44:06.832Z,80.68
2022-11-05T18:49:22.935Z,79.24
2022-11-05T18:51:50.560Z,80.87
2022-11-05T18:54:18.469Z,80.27
2022-11-05T18:56:46.382Z,79.26
2022-11-05T19:02:05.099Z,80.13
2022-11-05T19:04:33.287Z,80.13
2022-11-05T19:07:04.757Z,82.55
2022-11-05T19:09:34.521Z,81.89
2022-11-05T19:12:06.392Z,80.60
2022-11-05T19:14:35.511Z,80.90
2022-11-05T19:17:03.642Z,83.35
2022-11-05T19:19:31.439Z,80.39
2022-11-05T19:21:59.692Z,82.35
2022-11-05T19:24:27.471Z,81.10
2022-11-05T19:26:55.269Z,80.87
2022-11-05T19:29:24.094Z,80.02
2022-11-05T19:31:51.938Z,80.93
2022-11-05T19:34:20.563Z,79.23
2022-11-05T19:36:48.568Z,79.98
2022-11-05T19:39:16.592Z,82.12
2022-11-05T19:41:44.466Z,80.89
2022-11-05T19:44:12.130Z,80.76
2022-11-05T19:46:39.838Z,81.00
2022-11-05T19:49:07.840Z,80.41
2022-11-05T19:51:36.237Z,82.55
2022-11-05T19:54:04.528Z,85.11
2022-11-05T19:56:34.120Z,83.51
2022-11-05T19:59:03.395Z,83.72
2022-11-05T20:01:31.846Z,84.05
2022-11-05T20:04:02.724Z,86.62
2022-11-05T20:06:36.106Z,86.96
2022-11-05T20:09:22.862Z,86.95
2022-11-05T20:11:54.903Z,86.43
2022-11-05T20:14:24.512Z,87.82
2022-11-05T20:16:52.189Z,87.73
2022-11-05T20:19:21.672Z,85.10
2022-11-05T20:21:49.933Z,85.96
2022-11-05T20:24:24.225Z,89.33
2022-11-05T20:26:56.831Z,88.91
2022-11-05T20:29:33.679Z,89.27
2022-11-05T20:32:04.060Z,90.53
2022-11-05T20:34:32.840Z,88.80
2022-11-05T20:37:01.135Z,87.37
2022-11-05T20:39:29.473Z,85.39
2022-11-05T20:41:57.226Z,84.84
2022-11-05T20:44:24.667Z,88.76
2022-11-05T20:46:52.649Z,86.77
2022-11-05T20:49:25.197Z,85.96
2022-11-05T20:51:54.721Z,85.53
2022-11-05T20:54:23.049Z,90.27
2022-11-05T20:56:51.042Z,89.87
2022-11-05T20:59:19.906Z,87.22
2022-11-05T21:01:47.900Z,89.59
2022-11-05T21:04:16.276Z,88.20
2022-11-05T21:06:44.316Z,89.20
2022-11-05T21:09:13.463Z,86.09
2022-11-05T21:12:00.410Z,86.42
2022-11-05T21:14:28.448Z,85.64
2022-11-05T21:16:56.158Z,84.23
2022-11-05T21:19:25.435Z,82.45
2022-11-05T21:21:56.046Z,85.43
2022-11-05T21:24:24.629Z,86.03
2022-11-05T21:26:52.653Z,87.90
2022-11-05T21:29:21.197Z,86.15
2022-11-05T21:31:48.925Z,86.61
2022-11-05T21:34:17.614Z,87.23
2022-11-05T21:36:45.772Z,87.15
2022-11-05T21:39:13.952Z,85.44
2022-11-05T21:41:43.013Z,84.96
2022-11-05T21:44:10.716Z,84.87
2022-11-05T21:46:38.080Z,85.55
2022-11-05T21:49:05.707Z,84.68
2022-11-05T21:51:52.518Z,85.28
2022-11-05T21:54:38.455Z,84.26
2022-11-05T21:57:30.665Z,82.99
2022-11-05T22:00:00.463Z,82.45
2022-11-05T22:02:31.171Z,85.87
2022-11-05T22:05:00.204Z,82.71
2022-11-05T22:07:30.907Z,82.61
2022-11-05T22:09:58.567Z,82.02
2022-11-05T22:12:26.243Z,83.36
2022-11-05T22:14:54.146Z,83.79
2022-11-05T22:17:21.953Z,83.17
2022-11-05T22:19:49.295Z,84.70
2022-11-05T22:22:16.967Z,83.33
2022-11-05T22:24:44.696Z,82.57
2022-11-05T22:27:15.235Z,83.52
2022-11-05T22:29:42.785Z,82.80
2022-11-05T22:32:11.088Z,82.89
2022-11-05T22:34:38.601Z,82.86
2022-11-05T22:37:06.049Z,81.79
2022-11-05T22:39:33.978Z,82.56
2022-11-05T22:42:07.061Z,80.47
2022-11-05T22:44:36.700Z,80.67
2022-11-05T22:47:04.181Z,83.83
2022-11-05T22:49:31.587Z,86.46
2022-11-05T22:51:59.329Z,84.50
2022-11-05T22:54:26.632Z,84.66
2022-11-05T22:56:53.999Z,84.03
2022-11-05T22:59:21.569Z,84.31
2022-11-05T23:01:49.476Z,82.90
2022-11-05T23:04:16.848Z,84.09
2022-11-05T23:07:02.878Z,87.77
2022-11-05T23:09:51.462Z,84.91
2022-11-05T23:12:26.123Z,85.86
2022-11-05T23:14:55.295Z,85.10
2022-11-05T23:17:41.726Z,87.16
2022-11-05T23:20:31.833Z,85.50
2022-11-05T23:23:18.381Z,85.95
2022-11-05T23:25:45.712Z,87.21
2022-11-05T23:28:14.209Z,89.60
2022-11-05T23:31:02.474Z,86.12
2022-11-05T23:33:33.396Z,85.55
2022-11-05T23:36:19.254Z,85.56
2022-11-05T23:38:47.108Z,89.71
2022-11-05T23:41:32.764Z,86.05
2022-11-05T23:44:18.767Z,83.59
2022-11-05T23:47:04.774Z,84.92
2022-11-05T23:49:32.502Z,85.36
2022-11-05T23:52:00.322Z,84.30
2022-11-05T23:54:27.671Z,85.62
2022-11-05T23:56:55.427Z,86.47
2022-11-05T23:59:22.884Z,84.33
